createdAt,value
2022-10-22T00:00:15.058Z,94563.69
2022-10-22T00:03:19.050Z,94566.81
2022-10-22T00:06:22.440Z,94566.84
2022-10-22T00:09:26.630Z,94573.44
2022-10-22T00:12:30.322Z,94573.84
2022-10-22T00:15:34.576Z,94583.94
2022-10-22T00:18:38.433Z,94580.97
2022-10-22T00:21:42.310Z,94587.09
2022-10-22T00:24:45.901Z,94593.22
2022-10-22T00:27:49.587Z,94592.47
2022-10-22T00:30:58.312Z,94588.13
2022-10-22T00:34:02.248Z,94589.94
2022-10-22T00:37:06.429Z,94581.06
2022-10-22T00:40:10.905Z,94582.69
2022-10-22T00:43:19.211Z,94597.81
2022-10-22T00:46:23.198Z,94596.25
2022-10-22T00:49:27.209Z,94593.16
2022-10-22T00:52:30.793Z,94600.81
2022-10-22T00:55:35.645Z,94597.16
2022-10-22T00:58:43.830Z,94600.34
2022-10-22T01:01:48.307Z,94598.38
2022-10-22T01:04:52.020Z,94592.31
2022-10-22T01:07:56.414Z,94602.47
2022-10-22T01:11:21.379Z,94608.66
2022-10-22T01:14:37.102Z,94615.28
2022-10-22T01:17:58.626Z,94623.25
2022-10-22T01:21:11.655Z,94621.81
2022-10-22T01:24:29.801Z,94622.38
2022-10-22T01:28:10.445Z,94618.53
2022-10-22T01:31:15.427Z,94631.06
2022-10-22T01:34:20.562Z,94618.94
2022-10-22T01:37:26.751Z,94624.59
2022-10-22T01:40:30.240Z,94623.03
2022-10-22T01:43:34.297Z,94622.84
2022-10-22T01:46:40.024Z,94618.50
2022-10-22T01:50:30.527Z,94620.69
2022-10-22T01:53:57.329Z,94612.88
2022-10-22T01:57:14.683Z,94619.41
2022-10-22T02:00:20.123Z,94622.69
2022-10-22T02:03:32.205Z,94617.75
2022-10-22T02:06:39.679Z,94613.97
2022-10-22T02:09:44.126Z,94605.44
2022-10-22T02:12:52.918Z,94608.59
2022-10-22T02:15:57.687Z,94614.72
2022-10-22T02:19:14.964Z,94609.78
2022-10-22T02:22:18.794Z,94603.59
2022-10-22T02:25:23.898Z,94614.75
2022-10-22T02:28:52.301Z,94607.84
2022-10-22T02:31:58.942Z,94603.13
2022-10-22T02:35:03.875Z,94603.66
2022-10-22T02:38:08.775Z,94607.63
2022-10-22T02:41:12.340Z,94604.53
2022-10-22T02:44:16.373Z,94604.91
2022-10-22T02:47:20.171Z,94605.47
2022-10-22T02:50:24.152Z,94607.84
2022-10-22T02:53:28.109Z,94601.63
2022-10-22T02:56:32.047Z,94603.03
2022-10-22T02:59:35.602Z,94604.50
2022-10-22T03:02:39.894Z,94597.97
2022-10-22T03:05:42.691Z,94598.56
2022-10-22T03:08:46.603Z,94602.72
2022-10-22T03:11:50.170Z,94597.69
2022-10-22T03:14:53.045Z,94599.44
2022-10-22T03:17:56.319Z,94601.41
2022-10-22T03:21:29.995Z,94592.28
2022-10-22T03:24:39.026Z,94604.47
2022-10-22T03:27:43.705Z,94598.84
2022-10-22T03:30:48.145Z,94602.91
2022-10-22T03:33:51.731Z,94598.06
2022-10-22T03:36:56.176Z,94597.72
2022-10-22T03:39:59.899Z,94599.34
2022-10-22T03:43:03.957Z,94608.16
2022-10-22T03:46:08.106Z,94592.25
2022-10-22T03:49:11.802Z,94597.06
2022-10-22T03:52:16.318Z,94596.75
2022-10-22T03:55:20.048Z,94598.56
2022-10-22T03:58:24.064Z,94600.75
2022-10-22T04:01:28.688Z,94590.50
2022-10-22T04:04:33.153Z,94586.78
2022-10-22T04:07:36.482Z,94591.53
2022-10-22T04:10:40.928Z,94592.25
2022-10-22T04:13:45.326Z,94588.59
2022-10-22T04:16:49.279Z,94598.19
2022-10-22T04:19:52.856Z,94590.09
2022-10-22T04:22:56.614Z,94588.78
2022-10-22T04:26:01.748Z,94588.84
2022-10-22T04:29:10.556Z,94591.09
2022-10-22T04:32:16.657Z,94591.94
2022-10-22T04:35:20.725Z,94589.66
2022-10-22T04:38:24.493Z,94586.44
2022-10-22T04:41:33.799Z,94578.81
2022-10-22T04:44:37.283Z,94573.06
2022-10-22T04:47:41.341Z,94575.34
2022-10-22T04:50:44.794Z,94572.34
2022-10-22T04:53:48.506Z,94567.69
2022-10-22T04:56:51.643Z,94571.47
2022-10-22T04:59:55.632Z,94569.00
2022-10-22T05:02:58.537Z,94575.56
2022-10-22T05:06:03.320Z,94566.44
2022-10-22T05:09:09.632Z,94559.94
2022-10-22T05:12:13.681Z,94570.63
2022-10-22T05:15:17.337Z,94569.59
2022-10-22T05:18:22.574Z,94564.13
2022-10-22T05:21:26.908Z,94569.63
2022-10-22T05:24:32.937Z,94568.13
2022-10-22T05:27:35.849Z,94567.72
2022-10-22T05:30:39.054Z,94560.38
2022-10-22T05:33:43.610Z,94557.06
2022-10-22T05:36:47.702Z,94553.03
2022-10-22T05:40:01.706Z,94548.28
2022-10-22T05:43:15.612Z,94539.19
2022-10-22T05:46:23.064Z,94545.81
2022-10-22T05:49:27.239Z,94534.09
2022-10-22T05:52:30.845Z,94524.88
2022-10-22T05:55:39.698Z,94532.50
2022-10-22T05:58:45.039Z,94522.19
2022-10-22T06:01:48.999Z,94525.78
2022-10-22T06:04:52.581Z,94531.19
2022-10-22T06:07:58.600Z,94527.44
2022-10-22T06:11:02.231Z,94527.13
2022-10-22T06:14:06.187Z,94529.38
2022-10-22T06:17:10.248Z,94523.56
2022-10-22T06:20:15.134Z,94522.13
2022-10-22T06:23:18.321Z,94520.28
2022-10-22T06:26:21.907Z,94518.72
2022-10-22T06:29:25.655Z,94524.56
2022-10-22T06:32:29.555Z,94527.53
2022-10-22T06:35:33.941Z,94524.59
2022-10-22T06:38:37.536Z,94511.31
2022-10-22T06:41:41.259Z,94507.19
2022-10-22T06:44:45.171Z,94505.94
2022-10-22T06:47:49.515Z,94510.03
2022-10-22T06:50:53.268Z,94505.56
2022-10-22T06:53:57.927Z,94502.66
2022-10-22T06:57:01.794Z,94499.38
2022-10-22T07:00:08.052Z,94500.41
2022-10-22T07:03:14.797Z,94500.69
2022-10-22T07:06:19.386Z,94492.63
2022-10-22T07:09:23.300Z,94498.50
2022-10-22T07:12:27.347Z,94495.41
2022-10-22T07:15:31.247Z,94490.63
2022-10-22T07:18:35.786Z,94493.75
2022-10-22T07:21:39.965Z,94489.31
2022-10-22T07:24:43.596Z,94492.34
2022-10-22T07:27:47.164Z,94491.94
2022-10-22T07:30:51.273Z,94483.84
2022-10-22T07:33:54.748Z,94489.44
2022-10-22T07:36:58.399Z,94492.06
2022-10-22T07:40:03.869Z,94500.91
2022-10-22T07:43:07.550Z,94501.66
2022-10-22T07:46:12.097Z,94500.69
2022-10-22T07:49:15.630Z,94499.19
2022-10-22T07:52:19.525Z,94499.94
2022-10-22T07:55:23.183Z,94504.31
2022-10-22T07:58:27.578Z,94497.34
2022-10-22T08:01:31.256Z,94496.31
2022-10-22T08:04:35.231Z,94497.19
2022-10-22T08:07:38.817Z,94503.19
2022-10-22T08:10:43.154Z,94506.94
2022-10-22T08:13:46.306Z,94517.22
2022-10-22T08:16:50.059Z,94514.34
2022-10-22T08:19:53.566Z,94533.00
2022-10-22T08:22:57.543Z,94529.00
2022-10-22T08:26:00.912Z,94523.88
2022-10-22T08:29:05.042Z,94521.31
2022-10-22T08:32:08.697Z,94537.78
2022-10-22T08:35:14.214Z,94538.16
2022-10-22T08:38:21.356Z,94546.22
2022-10-22T08:41:25.488Z,94542.19
2022-10-22T08:44:44.314Z,94548.03
2022-10-22T08:48:06.147Z,94546.91
2022-10-22T08:51:14.806Z,94546.91
2022-10-22T08:54:24.218Z,94543.25
2022-10-22T08:57:48.732Z,94557.47
2022-10-22T09:01:02.586Z,94553.78
2022-10-22T09:04:17.853Z,94547.56
2022-10-22T09:07:21.910Z,94550.47
2022-10-22T09:10:33.557Z,94551.53
2022-10-22T09:13:37.745Z,94542.72
2022-10-22T09:17:06.769Z,94545.25
2022-10-22T09:20:18.707Z,94553.94
2022-10-22T09:23:52.657Z,94539.28
2022-10-22T09:26:58.484Z,94539.91
2022-10-22T09:30:02.434Z,94537.91
2022-10-22T09:33:14.840Z,94548.28
2022-10-22T09:36:22.510Z,94554.34
2022-10-22T09:39:34.313Z,94556.00
2022-10-22T09:42:38.980Z,94555.47
2022-10-22T09:45:44.887Z,94556.06
2022-10-22T09:49:12.348Z,94558.09
2022-10-22T09:52:31.983Z,94553.63
2022-10-22T09:55:35.548Z,94562.34
2022-10-22T09:58:47.190Z,94553.94
2022-10-22T10:02:08.365Z,94557.47
2022-10-22T10:05:27.670Z,94562.09
2022-10-22T10:08:31.820Z,94561.66
2022-10-22T10:11:47.285Z,94568.59
2022-10-22T10:15:07.540Z,94574.47
2022-10-22T10:18:39.865Z,94568.69
2022-10-22T10:22:00.960Z,94569.81
2022-10-22T10:25:32.074Z,94576.41
2022-10-22T10:28:39.874Z,94583.66
2022-10-22T10:32:13.779Z,94574.53
2022-10-22T10:35:47.322Z,94586.16
2022-10-22T10:38:50.587Z,94584.63
2022-10-22T10:42:11.743Z,94588.56
2022-10-22T10:45:19.005Z,94597.13
2022-10-22T10:48:34.270Z,94591.63
2022-10-22T10:52:30.907Z,94597.06
2022-10-22T10:55:48.730Z,94599.16
2022-10-22T10:59:06.273Z,94608.19
2022-10-22T11:02:45.989Z,94608.81
2022-10-22T11:06:19.449Z,94608.38
2022-10-22T11:09:30.875Z,94606.75
2022-10-22T11:12:43.421Z,94601.69
2022-10-22T11:15:57.280Z,94606.00
2022-10-22T11:19:22.556Z,94606.72
2022-10-22T11:22:55.001Z,94604.88
2022-10-22T11:26:11.928Z,94612.78
2022-10-22T11:29:30.649Z,94610.22
2022-10-22T11:32:37.252Z,94612.66
2022-10-22T11:35:44.246Z,94615.53
2022-10-22T11:38:48.244Z,94618.41
2022-10-22T11:41:53.918Z,94613.31
2022-10-22T11:45:03.624Z,94613.44
2022-10-22T11:48:19.438Z,94613.44
2022-10-22T11:51:49.082Z,94612.66
2022-10-22T11:54:58.387Z,94616.53
2022-10-22T11:58:03.599Z,94609.56
2022-10-22T12:01:10.106Z,94611.38
2022-10-22T12:04:17.819Z,94621.81
2022-10-22T12:07:59.357Z,94607.91
2022-10-22T12:11:11.116Z,94600.19
2022-10-22T12:14:23.971Z,94603.28
2022-10-22T12:17:30.552Z,94606.84
2022-10-22T12:20:33.795Z,94612.19
2022-10-22T12:23:38.295Z,94615.41
2022-10-22T12:26:41.949Z,94616.75
2022-10-22T12:29:45.957Z,94616.28
2022-10-22T12:32:51.973Z,94614.00
2022-10-22T12:35:58.125Z,94617.28
2022-10-22T12:39:04.754Z,94619.03
2022-10-22T12:42:13.147Z,94615.13
2022-10-22T12:45:16.110Z,94608.56
2022-10-22T12:48:22.558Z,94616.88
2022-10-22T12:51:26.591Z,94617.97
2022-10-22T12:54:33.903Z,94629.03
2022-10-22T12:57:36.792Z,94626.72
2022-10-22T13:00:42.192Z,94619.28
2022-10-22T13:03:52.172Z,94628.72
2022-10-22T13:07:18.344Z,94623.25
2022-10-22T13:10:32.528Z,94623.59
2022-10-22T13:13:46.078Z,94624.09
2022-10-22T13:17:09.291Z,94632.03
2022-10-22T13:20:24.155Z,94633.69
2022-10-22T13:23:29.261Z,94642.03
2022-10-22T13:26:36.195Z,94642.69
2022-10-22T13:29:42.457Z,94647.03
2022-10-22T13:32:51.994Z,94644.34
2022-10-22T13:35:57.484Z,94646.06
2022-10-22T13:39:01.257Z,94653.88
2022-10-22T13:42:04.473Z,94642.56
2022-10-22T13:45:08.812Z,94647.25
2022-10-22T13:48:22.455Z,94651.25
2022-10-22T13:51:38.220Z,94659.94
2022-10-22T13:54:41.854Z,94658.47
2022-10-22T13:57:46.440Z,94664.13
2022-10-22T14:00:58.524Z,94659.78
2022-10-22T14:04:04.805Z,94662.00
2022-10-22T14:07:16.236Z,94665.28
2022-10-22T14:10:22.160Z,94649.63
2022-10-22T14:13:27.239Z,94648.88
2022-10-22T14:16:33.348Z,94662.81
2022-10-22T14:19:37.020Z,94662.81
2022-10-22T14:22:40.975Z,94665.78
2022-10-22T14:25:45.180Z,94665.59
2022-10-22T14:29:08.842Z,94663.81
2022-10-22T14:32:20.902Z,94661.66
2022-10-22T14:35:24.869Z,94659.88
2022-10-22T14:38:29.414Z,94661.69
2022-10-22T14:41:33.465Z,94666.75
2022-10-22T14:44:36.343Z,94668.66
2022-10-22T14:47:39.682Z,94664.63
2022-10-22T14:50:44.847Z,94658.63
2022-10-22T14:53:49.032Z,94667.53
2022-10-22T14:56:52.168Z,94661.47
2022-10-22T14:59:55.929Z,94660.44
2022-10-22T15:03:03.335Z,94667.13
2022-10-22T15:06:08.698Z,94661.38
2022-10-22T15:09:12.513Z,94673.31
2022-10-22T15:12:16.698Z,94663.47
2022-10-22T15:15:22.699Z,94664.44
2022-10-22T15:18:27.836Z,94679.69
2022-10-22T15:21:31.494Z,94681.91
2022-10-22T15:24:34.985Z,94669.84
2022-10-22T15:27:38.278Z,94675.88
2022-10-22T15:30:42.262Z,94668.19
2022-10-22T15:33:45.820Z,94676.59
2022-10-22T15:36:50.266Z,94671.16
2022-10-22T15:39:54.050Z,94666.38
2022-10-22T15:42:58.385Z,94669.16
2022-10-22T15:46:15.345Z,94673.44
2022-10-22T15:49:20.158Z,94668.34
2022-10-22T15:52:24.181Z,94677.34
2022-10-22T15:55:28.144Z,94671.66
2022-10-22T15:58:31.952Z,94673.75
2022-10-22T16:01:36.665Z,94671.09
2022-10-22T16:04:40.379Z,94672.81
2022-10-22T16:07:44.512Z,94675.09
2022-10-22T16:10:49.051Z,94667.91
2022-10-22T16:13:57.691Z,94664.66
2022-10-22T16:17:02.162Z,94672.50
2022-10-22T16:20:06.657Z,94667.50
2022-10-22T16:23:10.143Z,94656.31
2022-10-22T16:26:15.582Z,94655.31
2022-10-22T16:29:19.562Z,94641.06
2022-10-22T16:32:24.098Z,94645.94
2022-10-22T16:35:27.817Z,94643.41
2022-10-22T16:38:31.358Z,94647.00
2022-10-22T16:41:36.061Z,94650.25
2022-10-22T16:44:39.703Z,94644.88
2022-10-22T16:47:43.790Z,94644.69
2022-10-22T16:50:47.697Z,94648.28
2022-10-22T16:53:56.431Z,94645.75
2022-10-22T16:56:59.742Z,94644.28
2022-10-22T17:00:05.648Z,94645.69
2022-10-22T17:03:13.181Z,94637.31
2022-10-22T17:06:17.071Z,94637.66
2022-10-22T17:09:21.158Z,94651.06
2022-10-22T17:12:24.923Z,94646.84
2022-10-22T17:15:28.974Z,94638.59
2022-10-22T17:18:33.514Z,94643.66
2022-10-22T17:21:37.469Z,94640.91
2022-10-22T17:24:44.426Z,94637.69
2022-10-22T17:27:48.570Z,94638.22
2022-10-22T17:30:51.924Z,94632.34
2022-10-22T17:33:57.602Z,94635.75
2022-10-22T17:37:00.953Z,94633.81
2022-10-22T17:40:06.518Z,94620.59
2022-10-22T17:43:09.996Z,94624.63
2022-10-22T17:46:23.098Z,94631.91
2022-10-22T17:49:26.995Z,94622.13
2022-10-22T17:52:30.736Z,94628.06
2022-10-22T17:55:35.414Z,94617.19
2022-10-22T17:58:39.364Z,94614.53
2022-10-22T18:01:46.100Z,94615.06
2022-10-22T18:04:53.925Z,94617.94
2022-10-22T18:07:57.438Z,94619.94
2022-10-22T18:11:01.411Z,94613.50
2022-10-22T18:14:05.555Z,94613.25
2022-10-22T18:17:09.673Z,94620.41
2022-10-22T18:20:13.814Z,94616.09
2022-10-22T18:23:17.753Z,94623.72
2022-10-22T18:26:25.880Z,94623.94
2022-10-22T18:29:30.863Z,94621.09
2022-10-22T18:32:34.882Z,94619.63
2022-10-22T18:35:38.822Z,94620.47
2022-10-22T18:38:42.346Z,94621.41
2022-10-22T18:41:46.368Z,94622.03
2022-10-22T18:44:52.651Z,94616.25
2022-10-22T18:47:56.701Z,94610.53
2022-10-22T18:51:06.480Z,94620.16
2022-10-22T18:54:22.578Z,94621.31
2022-10-22T18:57:27.542Z,94622.47
2022-10-22T19:00:31.681Z,94624.16
2022-10-22T19:03:35.637Z,94626.69
2022-10-22T19:06:42.967Z,94618.31
2022-10-22T19:09:48.949Z,94617.06
2022-10-22T19:12:53.011Z,94607.91
2022-10-22T19:16:03.310Z,94609.16
2022-10-22T19:19:08.246Z,94610.03
2022-10-22T19:22:11.947Z,94609.56
2022-10-22T19:25:15.910Z,94597.97
2022-10-22T19:28:19.564Z,94592.81
2022-10-22T19:31:25.429Z,94600.41
2022-10-22T19:34:28.639Z,94598.91
2022-10-22T19:37:34.529Z,94596.84
2022-10-22T19:40:37.730Z,94595.78
2022-10-22T19:43:45.930Z,94604.22
2022-10-22T19:46:48.782Z,94596.34
2022-10-22T19:49:52.410Z,94593.84
2022-10-22T19:52:55.502Z,94598.47
2022-10-22T19:56:00.719Z,94601.13
2022-10-22T19:59:06.279Z,94601.13
2022-10-22T20:02:16.619Z,94596.09
2022-10-22T20:05:20.309Z,94589.34
2022-10-22T20:08:24.243Z,94592.91
2022-10-22T20:11:29.853Z,94588.88
2022-10-22T20:14:34.214Z,94589.66
2022-10-22T20:17:38.066Z,94596.16
2022-10-22T20:20:42.136Z,94593.78
2022-10-22T20:23:44.969Z,94590.91
2022-10-22T20:26:48.923Z,94592.41
2022-10-22T20:29:52.568Z,94588.19
2022-10-22T20:32:56.547Z,94584.16
2022-10-22T20:36:06.466Z,94584.47
2022-10-22T20:39:14.020Z,94580.78
2022-10-22T20:42:17.623Z,94569.19
2022-10-22T20:45:20.579Z,94567.56
2022-10-22T20:48:30.032Z,94559.06
2022-10-22T20:51:35.826Z,94562.13
2022-10-22T20:54:42.978Z,94562.75
2022-10-22T20:57:47.229Z,94558.59
2022-10-22T21:00:51.050Z,94563.56
2022-10-22T21:03:55.218Z,94559.13
2022-10-22T21:06:59.318Z,94556.28
2022-10-22T21:10:03.411Z,94553.31
2022-10-22T21:13:07.050Z,94560.38
2022-10-22T21:16:12.568Z,94569.78
2022-10-22T21:19:16.673Z,94567.06
2022-10-22T21:22:20.892Z,94562.41
2022-10-22T21:25:24.455Z,94569.44
2022-10-22T21:31:34.127Z,94566.75
2022-10-22T21:34:39.060Z,94576.53
2022-10-22T21:37:43.212Z,94579.00
2022-10-22T21:40:47.354Z,94574.66
2022-10-22T21:43:52.017Z,94572.94
2022-10-22T21:46:56.266Z,94570.66
2022-10-22T21:50:00.212Z,94574.34
2022-10-22T21:53:03.530Z,94566.09
2022-10-22T21:56:09.095Z,94568.03
2022-10-22T21:59:13.142Z,94564.03
2022-10-22T22:02:17.009Z,94562.91
2022-10-22T22:05:22.099Z,94561.31
2022-10-22T22:08:26.635Z,94559.88
2022-10-22T22:11:30.710Z,94562.44
2022-10-22T22:14:34.918Z,94557.38
2022-10-22T22:17:38.179Z,94555.81
2022-10-22T22:20:42.197Z,94552.28
2022-10-22T22:23:48.168Z,94550.41
2022-10-22T22:26:52.173Z,94556.84
2022-10-22T22:29:55.498Z,94555.72
2022-10-22T22:32:59.220Z,94557.22
2022-10-22T22:36:02.944Z,94558.13
2022-10-22T22:39:08.337Z,94556.63
2022-10-22T22:42:11.605Z,94550.63
2022-10-22T22:45:15.728Z,94558.81
2022-10-22T22:48:19.484Z,94567.56
2022-10-22T22:51:23.681Z,94567.06
2022-10-22T22:54:27.483Z,94577.50
2022-10-22T22:57:31.372Z,94579.84
2022-10-22T23:00:35.267Z,94585.00
2022-10-22T23:03:39.954Z,94593.03
2022-10-22T23:06:43.799Z,94589.44
2022-10-22T23:09:47.706Z,94586.78
2022-10-22T23:12:50.974Z,94597.63
2022-10-22T23:15:54.804Z,94591.69
2022-10-22T23:19:01.130Z,94589.66
2022-10-22T23:22:05.075Z,94593.97
2022-10-22T23:25:08.991Z,94597.56
2022-10-22T23:28:13.048Z,94586.22
2022-10-22T23:31:18.220Z,94591.38
2022-10-22T23:34:25.544Z,94581.91
2022-10-22T23:37:29.251Z,94580.53
2022-10-22T23:40:33.213Z,94585.81
2022-10-22T23:43:38.189Z,94583.19
2022-10-22T23:46:43.821Z,94584.47
2022-10-22T23:49:47.478Z,94581.63
2022-10-22T23:52:52.861Z,94579.06
2022-10-22T23:55:56.547Z,94586.69
2022-10-22T23:59:00.559Z,94582.25
